createdAt,value
2018-11-02T00:00:56.385Z,4.00
2018-11-02T00:01:56.369Z,4.00
2018-11-02T00:02:56.349Z,4.00
2018-11-02T00:03:56.341Z,4.00
2018-11-02T00:04:56.303Z,4.00
2018-11-02T00:05:56.292Z,4.00
2018-11-02T00:06:56.267Z,4.00
2018-11-02T00:07:56.273Z,4.00
2018-11-02T00:08:56.217Z,4.00
2018-11-02T00:09:56.196Z,4.00
2018-11-02T00:10:56.176Z,4.00
2018-11-02T00:11:56.165Z,4.00
2018-11-02T00:12:56.132Z,4.00
2018-11-02T00:13:56.117Z,4.00
2018-11-02T00:14:56.100Z,4.00
2018-11-02T00:15:56.069Z,4.00
2018-11-02T00:16:56.051Z,4.00
2018-11-02T00:17:56.037Z,4.00
2018-11-02T00:18:56.008Z,4.00
2018-11-02T00:19:55.986Z,4.00
2018-11-02T00:20:55.967Z,4.00
2018-11-02T00:21:55.947Z,4.00
2018-11-02T00:22:55.943Z,4.00
2018-11-02T00:23:55.902Z,4.00
2018-11-02T00:24:55.881Z,4.00
2018-11-02T00:25:55.861Z,4.00
2018-11-02T00:26:55.939Z,4.00
2018-11-02T00:27:55.820Z,4.00
2018-11-02T00:28:55.799Z,4.00
2018-11-02T00:29:55.779Z,4.00
2018-11-02T00:30:55.759Z,4.00
2018-11-02T00:31:55.846Z,4.00
2018-11-02T00:32:55.723Z,4.00
2018-11-02T00:33:55.697Z,4.00
2018-11-02T00:34:55.683Z,4.00
2018-11-02T00:35:55.661Z,4.00
2018-11-02T00:36:55.631Z,4.00
2018-11-02T00:37:55.611Z,4.00
2018-11-02T00:38:55.591Z,4.00
2018-11-02T00:39:55.580Z,4.00
2018-11-02T00:40:55.554Z,4.00
2018-11-02T00:41:55.525Z,4.00
2018-11-02T00:42:55.506Z,4.00
2018-11-02T00:43:55.527Z,4.00
2018-11-02T00:44:55.463Z,4.00
2018-11-02T00:45:55.449Z,4.00
2018-11-02T00:46:55.459Z,4.00
2018-11-02T00:47:55.399Z,4.00
2018-11-02T00:48:55.378Z,4.00
2018-11-02T00:49:55.359Z,4.00
2018-11-02T00:50:55.348Z,4.00
2018-11-02T00:51:55.316Z,4.00
2018-11-02T00:52:55.303Z,4.00
2018-11-02T00:53:55.279Z,4.00
2018-11-02T00:54:55.254Z,4.00
2018-11-02T00:55:55.232Z,4.00
2018-11-02T00:56:55.213Z,4.00
2018-11-02T00:57:55.190Z,4.00
2018-11-02T00:58:55.178Z,4.00
2018-11-02T00:59:55.148Z,4.00
2018-11-02T01:00:55.126Z,4.00
2018-11-02T01:01:55.108Z,4.00
2018-11-02T01:02:55.088Z,4.00
2018-11-02T01:03:55.065Z,4.00
2018-11-02T01:04:55.043Z,4.00
2018-11-02T01:05:55.027Z,4.00
2018-11-02T01:06:55.005Z,4.00
2018-11-02T01:07:54.982Z,4.00
2018-11-02T01:08:54.961Z,4.00
2018-11-02T01:09:54.944Z,4.00
2018-11-02T01:10:54.917Z,4.00
2018-11-02T01:11:54.897Z,4.00
2018-11-02T01:12:54.875Z,4.00
2018-11-02T01:13:54.864Z,4.00
2018-11-02T01:14:54.836Z,4.00
2018-11-02T01:15:54.815Z,4.00
2018-11-02T01:16:54.792Z,4.00
2018-11-02T01:17:54.772Z,4.00
2018-11-02T01:18:54.750Z,4.00
2018-11-02T01:19:54.733Z,4.00
2018-11-02T01:20:54.710Z,4.00
2018-11-02T01:21:54.685Z,4.00
2018-11-02T01:22:54.667Z,4.00
2018-11-02T01:23:54.693Z,4.00
2018-11-02T01:24:54.782Z,4.00
2018-11-02T01:25:54.605Z,4.00
2018-11-02T01:26:54.587Z,4.00
2018-11-02T01:27:54.564Z,4.00
2018-11-02T01:28:54.547Z,4.00
2018-11-02T01:29:54.524Z,4.00
2018-11-02T01:30:54.502Z,4.00
2018-11-02T01:31:54.482Z,4.00
2018-11-02T01:32:54.457Z,4.00
2018-11-02T01:33:54.436Z,4.00
2018-11-02T01:34:54.419Z,4.00
2018-11-02T01:35:54.447Z,4.00
2018-11-02T01:36:54.373Z,4.00
2018-11-02T01:37:54.354Z,4.00
2018-11-02T01:38:54.332Z,4.00
2018-11-02T01:39:54.311Z,4.00
2018-11-02T01:40:54.292Z,4.00
2018-11-02T01:41:54.271Z,4.00
2018-11-02T01:42:54.252Z,4.00
2018-11-02T01:43:54.232Z,4.00
2018-11-02T01:44:54.207Z,4.00
2018-11-02T01:45:54.186Z,4.00
2018-11-02T01:46:54.165Z,4.00
2018-11-02T01:47:54.179Z,4.00
2018-11-02T01:48:54.123Z,4.00
2018-11-02T01:49:54.110Z,4.00
2018-11-02T01:50:54.115Z,4.00
2018-11-02T01:51:54.059Z,4.00
2018-11-02T01:52:54.042Z,4.00
2018-11-02T01:53:54.025Z,4.00
2018-11-02T01:54:54.008Z,4.00
2018-11-02T01:55:53.975Z,4.00
2018-11-02T01:56:53.953Z,4.00
2018-11-02T01:57:53.948Z,4.00
2018-11-02T01:58:53.920Z,4.00
2018-11-02T01:59:53.896Z,4.00
2018-11-02T02:00:53.877Z,4.00
2018-11-02T02:01:53.881Z,4.00
2018-11-02T02:02:53.827Z,4.00
2018-11-02T02:03:53.808Z,4.00
2018-11-02T02:04:53.783Z,4.00
2018-11-02T02:05:53.767Z,4.00
2018-11-02T02:06:53.743Z,4.00
2018-11-02T02:07:53.720Z,4.00
2018-11-02T02:08:53.701Z,4.00
2018-11-02T02:09:53.681Z,4.00
2018-11-02T02:10:53.658Z,4.00
2018-11-02T02:11:53.639Z,4.00
2018-11-02T02:12:53.626Z,4.00
2018-11-02T02:13:53.596Z,4.00
2018-11-02T02:14:53.574Z,4.00
2018-11-02T02:15:53.552Z,4.00
2018-11-02T02:16:53.617Z,4.00
2018-11-02T02:17:53.510Z,4.00
2018-11-02T02:18:53.499Z,4.00
2018-11-02T02:19:53.469Z,4.00
2018-11-02T02:20:53.456Z,4.00
2018-11-02T02:21:53.427Z,4.00
2018-11-02T02:22:53.404Z,4.00
2018-11-02T02:23:53.384Z,4.00
2018-11-02T02:24:53.365Z,4.00
2018-11-02T02:25:53.345Z,4.00
2018-11-02T02:26:53.330Z,4.00
2018-11-02T02:27:53.355Z,4.00
2018-11-02T02:28:53.283Z,4.00
2018-11-02T02:29:53.270Z,4.00
2018-11-02T02:30:53.246Z,4.00
2018-11-02T02:31:53.240Z,4.00
2018-11-02T02:32:53.197Z,4.00
2018-11-02T02:33:53.186Z,4.00
2018-11-02T02:34:53.168Z,4.00
2018-11-02T02:35:53.129Z,4.00
2018-11-02T02:36:53.110Z,4.00
2018-11-02T02:37:53.090Z,4.00
2018-11-02T02:38:53.080Z,4.00
2018-11-02T02:39:53.046Z,4.00
2018-11-02T02:40:53.026Z,4.00
2018-11-02T02:41:53.006Z,4.00
2018-11-02T02:42:52.992Z,4.00
2018-11-02T02:43:52.960Z,4.00
2018-11-02T02:44:52.940Z,4.00
2018-11-02T02:45:52.921Z,4.00
2018-11-02T02:46:52.900Z,4.00
2018-11-02T02:47:52.878Z,4.00
2018-11-02T02:48:52.855Z,4.00
2018-11-02T02:49:52.834Z,4.00
2018-11-02T02:50:52.820Z,4.00
2018-11-02T02:51:52.809Z,4.00
2018-11-02T02:52:52.809Z,4.00
2018-11-02T02:53:52.764Z,4.00
2018-11-02T02:54:52.728Z,4.00
2018-11-02T02:55:52.712Z,4.00
2018-11-02T02:56:52.688Z,4.00
2018-11-02T02:57:52.703Z,4.00
2018-11-02T02:58:52.645Z,4.00
2018-11-02T02:59:52.621Z,4.00
2018-11-02T03:00:52.601Z,4.00
2018-11-02T03:01:52.585Z,4.00
2018-11-02T03:02:52.563Z,4.00
2018-11-02T03:03:52.539Z,4.00
2018-11-02T03:04:52.517Z,4.00
2018-11-02T03:05:52.518Z,4.00
2018-11-02T03:06:52.480Z,4.00
2018-11-02T03:07:52.456Z,4.00
2018-11-02T03:08:52.438Z,4.00
2018-11-02T03:09:52.413Z,4.00
2018-11-02T03:10:52.492Z,4.00
2018-11-02T03:11:52.369Z,4.00
2018-11-02T03:12:52.377Z,4.00
2018-11-02T03:13:52.328Z,4.00
2018-11-02T03:14:52.312Z,4.00
2018-11-02T03:15:52.290Z,4.00
2018-11-02T03:16:52.267Z,4.00
2018-11-02T03:17:52.254Z,4.00
2018-11-02T03:18:52.311Z,4.00
2018-11-02T03:19:52.207Z,4.00
2018-11-02T03:20:52.190Z,4.00
2018-11-02T03:21:52.163Z,4.00
2018-11-02T03:22:52.149Z,4.00
2018-11-02T03:23:52.123Z,4.00
2018-11-02T03:24:52.098Z,4.00
2018-11-02T03:25:52.143Z,4.00
2018-11-02T03:26:52.058Z,4.00
2018-11-02T03:27:52.036Z,4.00
2018-11-02T03:28:52.018Z,4.00
2018-11-02T03:29:51.993Z,4.00
2018-11-02T03:30:52.009Z,4.00
2018-11-02T03:31:51.950Z,4.00
2018-11-02T03:32:51.936Z,4.00
2018-11-02T03:33:51.910Z,4.00
2018-11-02T03:34:51.890Z,4.00
2018-11-02T03:35:51.868Z,4.00
2018-11-02T03:36:51.846Z,4.00
2018-11-02T03:37:51.833Z,4.00
2018-11-02T03:38:51.805Z,4.00
2018-11-02T03:39:51.784Z,4.00
2018-11-02T03:40:51.779Z,4.00
2018-11-02T03:41:51.742Z,4.00
2018-11-02T03:42:51.720Z,4.00
2018-11-02T03:43:51.700Z,4.00
2018-11-02T03:44:51.681Z,4.00
2018-11-02T03:45:51.662Z,4.00
2018-11-02T03:46:51.635Z,4.00
2018-11-02T03:47:51.690Z,4.00
2018-11-02T03:48:51.593Z,4.00
2018-11-02T03:49:51.587Z,4.00
2018-11-02T03:50:51.555Z,4.00
2018-11-02T03:51:51.531Z,4.00
2018-11-02T03:52:51.509Z,4.00
2018-11-02T03:53:51.489Z,4.00
2018-11-02T03:54:51.468Z,4.00
2018-11-02T03:55:51.446Z,4.00
2018-11-02T03:56:51.503Z,4.00
2018-11-02T03:57:51.405Z,4.00
2018-11-02T03:58:51.389Z,4.00
2018-11-02T03:59:51.364Z,4.00
2018-11-02T04:00:51.341Z,4.00
2018-11-02T04:01:51.372Z,4.00
2018-11-02T04:02:51.319Z,4.00
2018-11-02T04:03:51.279Z,4.00
2018-11-02T04:04:51.258Z,4.00
2018-11-02T04:05:51.247Z,4.00
2018-11-02T04:06:51.220Z,4.00
2018-11-02T04:07:51.196Z,4.00
2018-11-02T04:08:51.176Z,4.00
2018-11-02T04:09:51.165Z,4.00
2018-11-02T04:10:51.137Z,4.00
2018-11-02T04:11:51.114Z,4.00
2018-11-02T04:12:51.096Z,4.00
2018-11-02T04:13:51.083Z,4.00
2018-11-02T04:14:51.052Z,4.00
2018-11-02T04:15:51.032Z,4.00
2018-11-02T04:16:51.013Z,4.00
2018-11-02T04:17:50.989Z,4.00
2018-11-02T04:18:50.977Z,4.00
2018-11-02T04:19:50.949Z,4.00
2018-11-02T04:20:50.945Z,4.00
2018-11-02T04:21:50.906Z,4.00
2018-11-02T04:22:50.889Z,4.00
2018-11-02T04:23:50.914Z,4.00
2018-11-02T04:24:50.844Z,4.00
2018-11-02T04:25:50.824Z,4.00
2018-11-02T04:26:50.801Z,4.00
2018-11-02T04:27:50.791Z,4.00
2018-11-02T04:28:50.759Z,4.00
2018-11-02T04:29:50.741Z,4.00
2018-11-02T04:30:50.788Z,4.00
2018-11-02T04:31:50.728Z,4.00
2018-11-02T04:32:50.679Z,4.00
2018-11-02T04:33:50.657Z,4.00
2018-11-02T04:34:50.637Z,4.00
2018-11-02T04:35:50.614Z,4.00
2018-11-02T04:36:50.593Z,4.00
2018-11-02T04:37:50.585Z,4.00
2018-11-02T04:38:50.551Z,4.00
2018-11-02T04:39:50.532Z,4.00
2018-11-02T04:40:50.511Z,4.00
2018-11-02T04:41:50.490Z,4.00
2018-11-02T04:42:50.469Z,4.00
2018-11-02T04:43:50.457Z,4.00
2018-11-02T04:44:50.425Z,4.00
2018-11-02T04:45:50.406Z,4.00
2018-11-02T04:46:50.384Z,4.00
2018-11-02T04:47:50.369Z,4.00
2018-11-02T04:48:50.354Z,4.00
2018-11-02T04:49:50.324Z,4.00
2018-11-02T04:50:50.316Z,4.00
2018-11-02T04:51:50.289Z,4.00
2018-11-02T04:52:50.268Z,4.00
2018-11-02T04:53:50.397Z,4.00
2018-11-02T04:54:50.220Z,4.00
2018-11-02T04:55:50.202Z,4.00
2018-11-02T04:56:50.180Z,4.00
2018-11-02T04:57:50.158Z,4.00
2018-11-02T04:58:50.138Z,4.00
2018-11-02T04:59:50.113Z,4.00
2018-11-02T05:00:50.097Z,4.00
2018-11-02T05:01:50.075Z,4.00
2018-11-02T05:02:50.057Z,4.00
2018-11-02T05:03:50.032Z,4.00
2018-11-02T05:04:50.012Z,4.00
2018-11-02T05:05:49.989Z,4.00
2018-11-02T05:06:49.970Z,4.00
2018-11-02T05:07:49.959Z,4.00
2018-11-02T05:08:49.928Z,4.00
2018-11-02T05:09:49.970Z,4.00
2018-11-02T05:10:49.889Z,4.00
2018-11-02T05:11:49.865Z,4.00
2018-11-02T05:12:49.878Z,4.00
2018-11-02T05:13:49.824Z,4.00
2018-11-02T05:14:49.807Z,4.00
2018-11-02T05:15:49.789Z,4.00
2018-11-02T05:16:49.765Z,4.00
2018-11-02T05:17:49.739Z,4.00
2018-11-02T05:18:49.721Z,4.00
2018-11-02T05:19:49.708Z,4.00
2018-11-02T05:20:49.678Z,4.00
2018-11-02T05:21:49.666Z,4.00
2018-11-02T05:22:49.643Z,4.00
2018-11-02T05:23:49.615Z,4.00
2018-11-02T05:24:49.594Z,4.00
2018-11-02T05:25:49.601Z,4.00
2018-11-02T05:26:49.553Z,4.00
2018-11-02T05:27:49.559Z,4.00
2018-11-02T05:28:49.511Z,4.00
2018-11-02T05:29:49.498Z,4.00
2018-11-02T05:30:49.469Z,4.00
2018-11-02T05:31:49.455Z,4.00
2018-11-02T05:32:49.427Z,4.00
2018-11-02T05:33:49.406Z,4.00
2018-11-02T05:34:49.387Z,4.00
2018-11-02T05:35:49.362Z,4.00
2018-11-02T05:36:49.351Z,4.00
2018-11-02T05:37:49.325Z,4.00
2018-11-02T05:38:49.303Z,4.00
2018-11-02T05:39:49.284Z,4.00
2018-11-02T05:40:49.258Z,4.00
2018-11-02T05:41:49.238Z,4.00
2018-11-02T05:42:49.305Z,4.00
2018-11-02T05:43:49.193Z,4.00
2018-11-02T05:44:49.179Z,4.00
2018-11-02T05:45:49.153Z,4.00
2018-11-02T05:46:49.131Z,4.00
2018-11-02T05:47:49.111Z,4.00
2018-11-02T05:48:49.091Z,4.00
2018-11-02T05:49:49.073Z,4.00
2018-11-02T05:50:49.050Z,4.00
2018-11-02T05:51:49.026Z,4.00
2018-11-02T05:52:49.006Z,4.00
2018-11-02T05:53:48.987Z,4.00
2018-11-02T05:54:48.964Z,4.00
2018-11-02T05:55:48.942Z,4.00
2018-11-02T05:56:48.921Z,8.00
2018-11-02T05:57:48.901Z,4.00
2018-11-02T05:58:48.886Z,4.00
2018-11-02T05:59:48.861Z,4.00
2018-11-02T06:00:48.841Z,8.00
2018-11-02T06:01:48.826Z,8.00
2018-11-02T06:02:48.797Z,8.00
2018-11-02T06:03:48.781Z,8.00
2018-11-02T06:04:48.757Z,12.00
2018-11-02T06:05:48.735Z,12.00
2018-11-02T06:06:48.714Z,16.00
2018-11-02T06:07:48.851Z,16.00
2018-11-02T06:08:48.669Z,16.00
2018-11-02T06:09:48.650Z,24.00
2018-11-02T06:10:48.637Z,24.00
2018-11-02T06:11:48.616Z,28.00
2018-11-02T06:12:48.591Z,28.00
2018-11-02T06:13:48.573Z,28.00
2018-11-02T06:14:48.547Z,24.00
2018-11-02T06:15:48.637Z,24.00
2018-11-02T06:16:48.606Z,36.00
2018-11-02T06:17:48.494Z,40.00
2018-11-02T06:18:48.671Z,48.00
2018-11-02T06:19:48.440Z,52.00
2018-11-02T06:20:48.422Z,68.00
2018-11-02T06:21:48.399Z,72.00
2018-11-02T06:22:48.375Z,84.00
2018-11-02T06:23:48.362Z,96.00
2018-11-02T06:24:48.334Z,136.00
2018-11-02T06:25:48.317Z,136.00
2018-11-02T06:26:48.295Z,164.00
2018-11-02T06:27:48.281Z,172.00
2018-11-02T06:28:48.250Z,220.00
2018-11-02T06:29:48.229Z,252.00
2018-11-02T06:30:48.239Z,276.00
2018-11-02T06:31:48.189Z,300.00
2018-11-02T06:32:48.227Z,308.00
2018-11-02T06:33:48.144Z,308.00
2018-11-02T06:34:48.122Z,312.00
2018-11-02T06:35:48.104Z,308.00
2018-11-02T06:36:48.087Z,312.00
2018-11-02T06:37:48.056Z,312.00
2018-11-02T06:38:48.127Z,320.00
2018-11-02T06:39:48.016Z,344.00
2018-11-02T06:40:48.014Z,368.00
2018-11-02T06:41:47.974Z,400.00
2018-11-02T06:42:47.964Z,420.00
2018-11-02T06:43:47.941Z,416.00
2018-11-02T06:44:47.940Z,404.00
2018-11-02T06:45:47.891Z,392.00
2018-11-02T06:46:47.868Z,396.00
2018-11-02T06:47:47.847Z,448.00
2018-11-02T06:48:47.825Z,508.00
2018-11-02T06:49:47.808Z,524.00
2018-11-02T06:50:47.874Z,536.00
2018-11-02T06:51:47.761Z,516.00
2018-11-02T06:52:47.743Z,472.00
2018-11-02T06:53:47.723Z,416.00
2018-11-02T06:54:47.701Z,384.00
2018-11-02T06:55:47.679Z,388.00
2018-11-02T06:56:47.659Z,412.00
2018-11-02T06:57:47.637Z,432.00
2018-11-02T06:58:47.616Z,440.00
2018-11-02T06:59:48.059Z,428.00
2018-11-02T07:00:47.577Z,376.00
2018-11-02T07:01:47.557Z,232.00
2018-11-02T07:02:47.532Z,208.00
2018-11-02T07:03:47.513Z,264.00
2018-11-02T07:04:47.489Z,352.00
2018-11-02T07:05:47.479Z,360.00
2018-11-02T07:06:47.448Z,476.00
2018-11-02T07:07:47.552Z,608.00
2018-11-02T07:08:47.441Z,700.00
2018-11-02T07:09:47.385Z,692.00
2018-11-02T07:10:47.375Z,676.00
2018-11-02T07:11:47.345Z,680.00
2018-11-02T07:12:47.343Z,672.00
2018-11-02T07:13:47.307Z,648.00
2018-11-02T07:14:47.282Z,624.00
2018-11-02T07:15:47.261Z,696.00
2018-11-02T07:16:47.240Z,744.00
2018-11-02T07:17:47.215Z,656.00
2018-11-02T07:18:47.195Z,544.00
2018-11-02T07:19:47.172Z,456.00
2018-11-02T07:20:47.204Z,336.00
2018-11-02T07:21:47.132Z,236.00
2018-11-02T07:22:47.115Z,240.00
2018-11-02T07:23:47.114Z,208.00
2018-11-02T07:24:47.070Z,252.00
2018-11-02T07:25:47.048Z,360.00
2018-11-02T07:26:47.027Z,492.00
2018-11-02T07:27:47.019Z,544.00
2018-11-02T07:28:46.989Z,588.00
2018-11-02T07:29:47.060Z,620.00
2018-11-02T07:30:46.948Z,988.00
2018-11-02T07:31:46.923Z,1080.00
2018-11-02T07:32:46.956Z,1752.00
2018-11-02T07:33:46.889Z,1996.00
2018-11-02T07:34:46.869Z,1488.00
2018-11-02T07:35:46.842Z,1856.00
2018-11-02T07:36:46.817Z,1828.00
2018-11-02T07:37:46.798Z,1608.00
2018-11-02T07:38:46.784Z,1644.00
2018-11-02T07:39:46.763Z,2236.00
2018-11-02T07:40:46.733Z,2156.00
2018-11-02T07:41:46.715Z,1584.00
2018-11-02T07:42:46.690Z,1080.00
2018-11-02T07:43:46.672Z,908.00
2018-11-02T07:44:46.652Z,1100.00
2018-11-02T07:45:46.630Z,1260.00
2018-11-02T07:46:46.608Z,1448.00
2018-11-02T07:47:46.853Z,1576.00
2018-11-02T07:48:46.573Z,1560.00
2018-11-02T07:49:46.721Z,1512.00
2018-11-02T07:50:46.533Z,1576.00
2018-11-02T07:51:46.505Z,1648.00
2018-11-02T07:52:46.495Z,1716.00
2018-11-02T07:53:46.463Z,1728.00
2018-11-02T07:54:46.447Z,1672.00
2018-11-02T07:55:46.420Z,1680.00
2018-11-02T07:56:46.400Z,1748.00
2018-11-02T07:57:46.381Z,1784.00
2018-11-02T07:58:46.365Z,1996.00
2018-11-02T07:59:46.339Z,2280.00
2018-11-02T08:00:46.329Z,2564.00
2018-11-02T08:01:46.379Z,2736.00
2018-11-02T08:02:46.377Z,3040.00
2018-11-02T08:03:46.257Z,3224.00
2018-11-02T08:04:46.239Z,2956.00
2018-11-02T08:05:46.216Z,3156.00
2018-11-02T08:06:46.193Z,3336.00
2018-11-02T08:07:46.172Z,3328.00
2018-11-02T08:08:46.160Z,3664.00
2018-11-02T08:09:46.133Z,3536.00
2018-11-02T08:10:46.113Z,3388.00
2018-11-02T08:11:46.091Z,2976.00
2018-11-02T08:12:46.081Z,3500.00
2018-11-02T08:13:46.060Z,3192.00
2018-11-02T08:14:46.034Z,1856.00
2018-11-02T08:15:46.012Z,2364.00
2018-11-02T08:16:45.991Z,2392.00
2018-11-02T08:17:46.138Z,2604.00
2018-11-02T08:18:46.022Z,3380.00
2018-11-02T08:19:45.936Z,3708.00
2018-11-02T08:20:45.907Z,4760.00
2018-11-02T08:21:45.891Z,4752.00
2018-11-02T08:22:45.868Z,3408.00
2018-11-02T08:23:45.844Z,3184.00
2018-11-02T08:24:45.850Z,3832.00
2018-11-02T08:25:45.804Z,3984.00
2018-11-02T08:26:45.785Z,2672.00
2018-11-02T08:27:45.764Z,3116.00
2018-11-02T08:28:45.750Z,4308.00
2018-11-02T08:29:45.723Z,4356.00
2018-11-02T08:30:45.702Z,4468.00
2018-11-02T08:31:45.691Z,4040.00
2018-11-02T08:32:45.671Z,4588.00
2018-11-02T08:33:45.644Z,3992.00
2018-11-02T08:34:45.639Z,3940.00
2018-11-02T08:35:45.603Z,4048.00
2018-11-02T08:36:45.581Z,5032.00
2018-11-02T08:37:45.574Z,5960.00
2018-11-02T08:38:45.590Z,6816.00
2018-11-02T08:39:45.523Z,6348.00
2018-11-02T08:40:45.499Z,6980.00
2018-11-02T08:41:45.488Z,6984.00
2018-11-02T08:42:45.469Z,5960.00
2018-11-02T08:43:45.443Z,7120.00
2018-11-02T08:44:45.419Z,7420.00
2018-11-02T08:45:45.412Z,6968.00
2018-11-02T08:46:45.381Z,7088.00
2018-11-02T08:47:45.369Z,6208.00
2018-11-02T08:48:45.342Z,6232.00
2018-11-02T08:49:45.319Z,5696.00
2018-11-02T08:50:45.301Z,5408.00
2018-11-02T08:51:45.287Z,5048.00
2018-11-02T08:52:45.263Z,7532.00
2018-11-02T08:53:45.241Z,10200.00
2018-11-02T08:54:45.394Z,10340.00
2018-11-02T08:55:45.200Z,10216.00
2018-11-02T08:56:45.184Z,7464.00
2018-11-02T08:57:45.289Z,6600.00
2018-11-02T08:58:45.496Z,7112.00
2018-11-02T08:59:45.243Z,6948.00
2018-11-02T09:00:45.115Z,6824.00
2018-11-02T09:01:45.090Z,6448.00
2018-11-02T09:02:45.069Z,6908.00
2018-11-02T09:03:45.053Z,7684.00
2018-11-02T09:04:45.088Z,8856.00
2018-11-02T09:05:45.022Z,9628.00
2018-11-02T09:06:44.989Z,10004.00
2018-11-02T09:07:45.003Z,8788.00
2018-11-02T09:08:44.956Z,9988.00
2018-11-02T09:09:44.936Z,10224.00
2018-11-02T09:10:44.954Z,8312.00
2018-11-02T09:11:44.899Z,8400.00
2018-11-02T09:12:44.872Z,7404.00
2018-11-02T09:13:44.875Z,8692.00
2018-11-02T09:14:44.841Z,11160.00
2018-11-02T09:15:44.820Z,8712.00
2018-11-02T09:16:44.993Z,6548.00
2018-11-02T09:17:44.772Z,5812.00
2018-11-02T09:18:44.751Z,6268.00
2018-11-02T09:19:44.845Z,6096.00
2018-11-02T09:20:44.711Z,6520.00
2018-11-02T09:21:44.698Z,6324.00
2018-11-02T09:22:44.687Z,5856.00
2018-11-02T09:23:44.663Z,5588.00
2018-11-02T09:24:44.648Z,5224.00
2018-11-02T09:25:44.629Z,5668.00
2018-11-02T09:26:44.601Z,6156.00
2018-11-02T09:27:44.797Z,7112.00
2018-11-02T09:28:44.559Z,7912.00
2018-11-02T09:29:44.543Z,7664.00
2018-11-02T09:30:44.600Z,7156.00
2018-11-02T09:31:44.532Z,7296.00
2018-11-02T09:32:44.484Z,8160.00
2018-11-02T09:33:44.463Z,8884.00
2018-11-02T09:34:44.446Z,10992.00
2018-11-02T09:35:44.426Z,16012.00
2018-11-02T09:36:44.414Z,10408.00
2018-11-02T09:37:44.385Z,11960.00
2018-11-02T09:38:44.374Z,14512.00
2018-11-02T09:39:44.345Z,11088.00
2018-11-02T09:40:44.330Z,11712.00
2018-11-02T09:41:44.307Z,11476.00
2018-11-02T09:42:44.335Z,11584.00
2018-11-02T09:43:44.272Z,10560.00
2018-11-02T09:44:44.251Z,10812.00
2018-11-02T09:45:44.238Z,9944.00
2018-11-02T09:46:44.212Z,10096.00
2018-11-02T09:47:44.197Z,11476.00
2018-11-02T09:48:44.173Z,20384.00
2018-11-02T09:49:44.163Z,18336.00
2018-11-02T09:50:44.146Z,24032.00
2018-11-02T09:51:44.201Z,27648.00
2018-11-02T09:52:44.104Z,35168.00
2018-11-02T09:53:44.090Z,44000.00
2018-11-02T09:54:44.069Z,34240.00
2018-11-02T09:55:44.045Z,35936.00
2018-11-02T09:56:44.032Z,15536.00
2018-11-02T09:57:44.091Z,8384.00
2018-11-02T09:58:44.001Z,7804.00
2018-11-02T09:59:43.974Z,7568.00
2018-11-02T10:00:43.963Z,8392.00
2018-11-02T10:01:43.940Z,6092.00
2018-11-02T10:02:44.040Z,6484.00
2018-11-02T10:03:43.905Z,6068.00
2018-11-02T10:04:43.890Z,6584.00
2018-11-02T10:05:43.901Z,6380.00
2018-11-02T10:06:43.849Z,5348.00
2018-11-02T10:07:43.829Z,5612.00
2018-11-02T10:08:43.821Z,5844.00
2018-11-02T10:09:43.795Z,5476.00
2018-11-02T10:10:43.786Z,5192.00
2018-11-02T10:11:43.759Z,5084.00
2018-11-02T10:12:43.749Z,4816.00
2018-11-02T10:13:43.725Z,4360.00
2018-11-02T10:14:43.705Z,3980.00
2018-11-02T10:15:43.686Z,3720.00
2018-11-02T10:16:43.669Z,3688.00
2018-11-02T10:17:43.648Z,4212.00
2018-11-02T10:18:43.629Z,4508.00
2018-11-02T10:19:43.626Z,5208.00
2018-11-02T10:20:43.593Z,5708.00
2018-11-02T10:21:43.575Z,6112.00
2018-11-02T10:22:43.569Z,6072.00
2018-11-02T10:23:43.592Z,5388.00
2018-11-02T10:24:43.527Z,4872.00
2018-11-02T10:25:43.509Z,4584.00
2018-11-02T10:26:43.484Z,4488.00
2018-11-02T10:27:43.465Z,4524.00
2018-11-02T10:28:43.446Z,4600.00
2018-11-02T10:29:43.426Z,4656.00
2018-11-02T10:30:43.407Z,4676.00
2018-11-02T10:31:43.397Z,4664.00
2018-11-02T10:32:43.378Z,4632.00
2018-11-02T10:33:43.354Z,4772.00
2018-11-02T10:34:43.336Z,4968.00
2018-11-02T10:35:43.361Z,5308.00
2018-11-02T10:36:43.293Z,5884.00
2018-11-02T10:37:43.275Z,6252.00
2018-11-02T10:38:43.258Z,6512.00
2018-11-02T10:39:43.343Z,7416.00
2018-11-02T10:40:43.230Z,8012.00
2018-11-02T10:41:43.207Z,8796.00
2018-11-02T10:42:43.189Z,9132.00
2018-11-02T10:43:43.161Z,8916.00
2018-11-02T10:44:43.199Z,8292.00
2018-11-02T10:45:43.140Z,7836.00
2018-11-02T10:46:43.120Z,7740.00
2018-11-02T10:47:43.089Z,7492.00
2018-11-02T10:48:43.091Z,7448.00
2018-11-02T10:49:43.158Z,7964.00
2018-11-02T10:50:43.038Z,8512.00
2018-11-02T10:51:43.009Z,8612.00
2018-11-02T10:52:42.999Z,8168.00
2018-11-02T10:53:42.972Z,7716.00
2018-11-02T10:54:43.060Z,7524.00
2018-11-02T10:55:42.935Z,7396.00
2018-11-02T10:56:42.989Z,7676.00
2018-11-02T10:57:42.909Z,8192.00
2018-11-02T10:58:42.880Z,8536.00
2018-11-02T10:59:42.869Z,8664.00
2018-11-02T11:00:42.942Z,8788.00
2018-11-02T11:01:42.826Z,9152.00
2018-11-02T11:02:42.808Z,9352.00
2018-11-02T11:03:42.784Z,9624.00
2018-11-02T11:04:42.780Z,9796.00
2018-11-02T11:05:42.750Z,9660.00
2018-11-02T11:06:42.736Z,9792.00
2018-11-02T11:07:42.711Z,10096.00
2018-11-02T11:08:42.694Z,10548.00
2018-11-02T11:09:42.678Z,11064.00
2018-11-02T11:10:42.655Z,10504.00
2018-11-02T11:11:42.775Z,9464.00
2018-11-02T11:12:42.820Z,8608.00
2018-11-02T11:13:42.941Z,8000.00
2018-11-02T11:14:42.583Z,7528.00
2018-11-02T11:15:42.576Z,7084.00
2018-11-02T11:16:42.545Z,6992.00
2018-11-02T11:17:42.534Z,7168.00
2018-11-02T11:18:42.555Z,7092.00
2018-11-02T11:19:42.486Z,6880.00
2018-11-02T11:20:42.472Z,6932.00
2018-11-02T11:21:42.476Z,6736.00
2018-11-02T11:22:42.434Z,5984.00
2018-11-02T11:23:42.416Z,5392.00
2018-11-02T11:24:42.395Z,5428.00
2018-11-02T11:25:42.374Z,5528.00
2018-11-02T11:26:42.357Z,4632.00
2018-11-02T11:27:42.388Z,3292.00
2018-11-02T11:28:42.321Z,2440.00
2018-11-02T11:29:42.297Z,2036.00
2018-11-02T11:30:42.284Z,2024.00
2018-11-02T11:31:42.265Z,2212.00
2018-11-02T11:32:42.251Z,2268.00
2018-11-02T11:33:42.237Z,2324.00
2018-11-02T11:34:42.202Z,2672.00
2018-11-02T11:35:42.189Z,3180.00
2018-11-02T11:36:42.167Z,3664.00
2018-11-02T11:37:42.265Z,3740.00
2018-11-02T11:38:42.147Z,3792.00
2018-11-02T11:39:42.215Z,3616.00
2018-11-02T11:40:42.092Z,3176.00
2018-11-02T11:41:42.075Z,2848.00
2018-11-02T11:42:42.051Z,2584.00
2018-11-02T11:43:42.028Z,2336.00
2018-11-02T11:44:42.054Z,2320.00
2018-11-02T11:45:41.994Z,2716.00
2018-11-02T11:46:41.984Z,3516.00
2018-11-02T11:47:41.952Z,4580.00
2018-11-02T11:48:41.966Z,5904.00
2018-11-02T11:49:41.913Z,8040.00
2018-11-02T11:50:41.901Z,11384.00
2018-11-02T11:51:41.880Z,11424.00
2018-11-02T11:52:41.856Z,12224.00
2018-11-02T11:53:41.838Z,13676.00
2018-11-02T11:54:41.934Z,12956.00
2018-11-02T11:55:41.798Z,12576.00
2018-11-02T11:56:41.779Z,12168.00
2018-11-02T11:57:41.770Z,11864.00
2018-11-02T11:58:41.741Z,11436.00
2018-11-02T11:59:41.727Z,11148.00
2018-11-02T12:00:41.711Z,10676.00
2018-11-02T12:01:41.696Z,10044.00
2018-11-02T12:02:41.668Z,9360.00
2018-11-02T12:03:41.650Z,9036.00
2018-11-02T12:04:41.656Z,8552.00
2018-11-02T12:05:41.611Z,8020.00
2018-11-02T12:06:41.596Z,7224.00
2018-11-02T12:07:41.573Z,6024.00
2018-11-02T12:08:41.556Z,5192.00
2018-11-02T12:09:41.545Z,4636.00
2018-11-02T12:10:41.606Z,4120.00
2018-11-02T12:11:41.501Z,3888.00
2018-11-02T12:12:41.481Z,3744.00
2018-11-02T12:13:41.541Z,3740.00
2018-11-02T12:14:41.445Z,4024.00
2018-11-02T12:15:41.461Z,4304.00
2018-11-02T12:16:41.414Z,4356.00
2018-11-02T12:17:41.394Z,4220.00
2018-11-02T12:18:41.376Z,4160.00
2018-11-02T12:19:41.363Z,4168.00
2018-11-02T12:20:41.332Z,4216.00
2018-11-02T12:21:41.403Z,4472.00
2018-11-02T12:22:41.309Z,4832.00
2018-11-02T12:23:41.290Z,5208.00
2018-11-02T12:24:41.256Z,5380.00
2018-11-02T12:25:41.237Z,5640.00
2018-11-02T12:26:41.224Z,6240.00
2018-11-02T12:27:41.214Z,6916.00
2018-11-02T12:28:41.230Z,7628.00
2018-11-02T12:29:41.170Z,8284.00
2018-11-02T12:30:41.180Z,8796.00
2018-11-02T12:31:41.133Z,9128.00
2018-11-02T12:32:41.114Z,9496.00
2018-11-02T12:33:41.090Z,9888.00
2018-11-02T12:34:41.070Z,10276.00
2018-11-02T12:35:41.103Z,10576.00
2018-11-02T12:36:41.049Z,10780.00
2018-11-02T12:37:41.017Z,10608.00
2018-11-02T12:38:40.997Z,9976.00
2018-11-02T12:39:40.977Z,9124.00
2018-11-02T12:40:40.963Z,8168.00